createdAt,value
2023-01-15T00:02:26.766Z,8.45
2023-01-15T00:04:54.693Z,8.44
2023-01-15T00:07:22.511Z,8.42
2023-01-15T00:09:51.272Z,8.40
2023-01-15T00:12:19.086Z,8.38
2023-01-15T00:14:47.217Z,8.36
2023-01-15T00:17:14.941Z,8.34
2023-01-15T00:19:42.692Z,8.35
2023-01-15T00:22:10.761Z,8.35
2023-01-15T00:24:56.941Z,8.30
2023-01-15T00:27:40.025Z,8.32
2023-01-15T00:30:09.684Z,8.25
2023-01-15T00:32:37.445Z,8.25
2023-01-15T00:35:05.455Z,8.20
2023-01-15T00:37:33.249Z,8.21
2023-01-15T00:40:00.997Z,8.25
2023-01-15T00:42:28.746Z,8.21
2023-01-15T00:44:57.328Z,8.22
2023-01-15T00:47:25.175Z,8.22
2023-01-15T00:49:52.953Z,8.20
2023-01-15T00:52:20.740Z,8.23
2023-01-15T00:54:49.483Z,8.27
2023-01-15T00:57:17.219Z,8.38
2023-01-15T00:59:45.049Z,8.47
2023-01-15T01:02:12.924Z,8.55
2023-01-15T01:04:40.746Z,8.62
2023-01-15T01:07:08.480Z,8.67
2023-01-15T01:09:36.319Z,8.76
2023-01-15T01:12:04.059Z,8.81
2023-01-15T01:14:31.843Z,8.90
2023-01-15T01:16:59.615Z,8.97
2023-01-15T01:19:27.540Z,9.03
2023-01-15T01:21:55.535Z,9.08
2023-01-15T01:24:24.355Z,9.12
2023-01-15T01:26:54.314Z,9.14
2023-01-15T01:29:22.995Z,9.16
2023-01-15T01:31:52.209Z,9.19
2023-01-15T01:34:20.095Z,9.20
2023-01-15T01:36:48.265Z,9.22
2023-01-15T01:39:17.877Z,9.24
2023-01-15T01:41:46.069Z,9.27
2023-01-15T01:44:38.477Z,9.32
2023-01-15T01:47:10.926Z,9.35
2023-01-15T01:49:39.648Z,9.35
2023-01-15T01:52:09.533Z,9.35
2023-01-15T01:54:37.507Z,9.36
2023-01-15T01:57:05.362Z,9.36
2023-01-15T01:59:33.155Z,9.34
2023-01-15T02:02:01.184Z,9.31
2023-01-15T02:04:29.152Z,9.32
2023-01-15T02:06:56.930Z,9.28
2023-01-15T02:09:24.720Z,9.27
2023-01-15T02:11:56.901Z,9.27
2023-01-15T02:14:32.356Z,9.20
2023-01-15T02:17:15.191Z,9.08
2023-01-15T02:19:51.635Z,9.09
2023-01-15T02:22:36.333Z,9.07
2023-01-15T02:25:25.882Z,9.06
2023-01-15T02:27:59.191Z,9.03
2023-01-15T02:30:33.403Z,8.97
2023-01-15T02:33:08.023Z,8.97
2023-01-15T02:35:46.047Z,8.96
2023-01-15T02:38:16.560Z,8.93
2023-01-15T02:40:44.296Z,8.91
2023-01-15T02:43:12.146Z,8.88
2023-01-15T02:45:41.967Z,8.88
2023-01-15T02:48:15.624Z,8.87
2023-01-15T02:50:49.656Z,8.88
2023-01-15T02:53:22.870Z,8.88
2023-01-15T02:55:51.601Z,8.91
2023-01-15T02:58:22.754Z,8.91
2023-01-15T03:00:51.304Z,8.92
2023-01-15T03:03:41.051Z,8.93
2023-01-15T03:06:27.836Z,8.95
2023-01-15T03:08:55.611Z,8.93
2023-01-15T03:11:23.474Z,8.90
2023-01-15T03:14:08.657Z,8.86
2023-01-15T03:16:40.622Z,8.85
2023-01-15T03:19:10.821Z,8.85
2023-01-15T03:21:46.765Z,8.84
2023-01-15T03:24:14.923Z,8.79
2023-01-15T03:26:42.738Z,8.72
2023-01-15T03:29:10.496Z,8.74
2023-01-15T03:31:38.810Z,8.76
2023-01-15T03:34:08.283Z,8.74
2023-01-15T03:36:36.533Z,8.73
2023-01-15T03:39:04.793Z,8.71
2023-01-15T03:41:38.407Z,8.66
2023-01-15T03:44:20.947Z,8.66
2023-01-15T03:47:13.892Z,8.65
2023-01-15T03:50:03.554Z,8.60
2023-01-15T03:52:47.401Z,8.64
2023-01-15T03:55:31.145Z,8.62
2023-01-15T03:58:22.767Z,8.60
2023-01-15T04:00:54.615Z,8.62
2023-01-15T04:03:23.730Z,8.62
2023-01-15T04:05:51.730Z,8.62
2023-01-15T04:08:19.466Z,8.59
2023-01-15T04:11:00.123Z,8.57
2023-01-15T04:13:30.946Z,8.58
2023-01-15T04:15:59.406Z,8.60
2023-01-15T04:18:27.267Z,8.61
2023-01-15T04:20:57.955Z,8.64
2023-01-15T04:23:25.734Z,8.67
2023-01-15T04:25:53.457Z,8.63
2023-01-15T04:28:21.234Z,8.64
2023-01-15T04:30:49.014Z,8.63
2023-01-15T04:33:16.785Z,8.63
2023-01-15T04:35:45.616Z,8.63
2023-01-15T04:38:13.372Z,8.65
2023-01-15T04:40:59.758Z,8.63
2023-01-15T04:43:45.940Z,8.65
2023-01-15T04:46:13.805Z,8.64
2023-01-15T04:48:41.696Z,8.67
2023-01-15T04:51:09.518Z,8.67
2023-01-15T04:53:37.292Z,8.66
2023-01-15T04:56:05.676Z,8.67
2023-01-15T04:58:33.738Z,8.68
2023-01-15T05:01:04.453Z,8.68
2023-01-15T05:03:32.607Z,8.70
2023-01-15T05:06:03.857Z,8.68
2023-01-15T05:08:31.619Z,8.70
2023-01-15T05:11:03.814Z,8.67
2023-01-15T05:13:34.318Z,8.68
2023-01-15T05:16:33.397Z,8.70
2023-01-15T05:19:03.344Z,8.68
2023-01-15T05:21:35.562Z,8.67
2023-01-15T05:24:04.420Z,8.68
2023-01-15T05:26:32.849Z,8.63
2023-01-15T05:29:01.223Z,8.60
2023-01-15T05:31:29.498Z,8.55
2023-01-15T05:33:57.642Z,8.52
2023-01-15T05:36:27.419Z,8.46
2023-01-15T05:38:55.746Z,8.44
2023-01-15T05:41:42.210Z,8.45
2023-01-15T05:44:12.031Z,8.44
2023-01-15T05:46:40.800Z,8.45
2023-01-15T05:49:10.526Z,8.46
2023-01-15T05:51:38.808Z,8.47
2023-01-15T05:54:07.332Z,8.47
2023-01-15T05:56:38.567Z,8.48
2023-01-15T05:59:06.915Z,8.50
2023-01-15T06:01:34.857Z,8.51
2023-01-15T06:04:03.681Z,8.50
2023-01-15T06:06:31.677Z,8.50
2023-01-15T06:08:59.786Z,8.46
2023-01-15T06:11:27.842Z,8.47
2023-01-15T06:13:55.724Z,8.48
2023-01-15T06:16:23.973Z,8.50
2023-01-15T06:18:51.833Z,8.49
2023-01-15T06:21:19.892Z,8.54
2023-01-15T06:23:47.797Z,8.54
2023-01-15T06:26:17.543Z,8.56
2023-01-15T06:28:45.854Z,8.57
2023-01-15T06:31:15.718Z,8.58
2023-01-15T06:33:43.664Z,8.59
2023-01-15T06:36:25.007Z,8.60
2023-01-15T06:38:52.838Z,8.57
2023-01-15T06:41:43.328Z,8.56
2023-01-15T06:44:32.168Z,8.60
2023-01-15T06:47:18.639Z,8.60
2023-01-15T06:49:46.520Z,8.60
2023-01-15T06:52:14.389Z,8.60
2023-01-15T06:54:42.235Z,8.61
2023-01-15T06:57:09.974Z,8.55
2023-01-15T06:59:37.817Z,8.55
2023-01-15T07:02:05.635Z,8.54
2023-01-15T07:04:33.532Z,8.50
2023-01-15T07:07:01.224Z,8.48
2023-01-15T07:09:29.114Z,8.46
2023-01-15T07:11:56.856Z,8.46
2023-01-15T07:14:25.860Z,8.47
2023-01-15T07:16:53.745Z,8.42
2023-01-15T07:19:21.768Z,8.40
2023-01-15T07:21:50.086Z,8.38
2023-01-15T07:24:18.619Z,8.36
2023-01-15T07:26:46.933Z,8.41
2023-01-15T07:29:14.982Z,8.44
2023-01-15T07:31:43.018Z,8.44
2023-01-15T07:34:11.106Z,8.48
2023-01-15T07:36:39.071Z,8.48
2023-01-15T07:39:07.341Z,8.51
2023-01-15T07:41:53.581Z,8.51
2023-01-15T07:44:39.933Z,8.51
2023-01-15T07:47:45.600Z,8.52
2023-01-15T07:50:22.146Z,8.51
2023-01-15T07:52:52.838Z,8.51
2023-01-15T07:55:20.984Z,8.54
2023-01-15T07:57:48.916Z,8.56
2023-01-15T08:00:20.979Z,8.58
2023-01-15T08:02:51.095Z,8.57
2023-01-15T08:05:19.378Z,8.56
2023-01-15T08:07:47.351Z,8.55
2023-01-15T08:10:15.307Z,8.54
2023-01-15T08:13:01.554Z,8.55
2023-01-15T08:15:31.836Z,8.58
2023-01-15T08:17:59.849Z,8.59
2023-01-15T08:20:27.843Z,8.58
2023-01-15T08:22:55.742Z,8.62
2023-01-15T08:25:25.881Z,8.61
2023-01-15T08:27:53.953Z,8.61
2023-01-15T08:30:23.623Z,8.59
2023-01-15T08:33:00.265Z,8.59
2023-01-15T08:35:28.201Z,8.59
2023-01-15T08:37:56.308Z,8.55
2023-01-15T08:40:29.520Z,8.51
2023-01-15T08:42:57.439Z,8.51
2023-01-15T08:45:25.730Z,8.66
2023-01-15T08:47:57.261Z,8.83
2023-01-15T08:50:25.498Z,8.95
2023-01-15T08:52:53.370Z,9.11
2023-01-15T08:55:22.616Z,9.22
2023-01-15T08:57:50.455Z,9.30
2023-01-15T09:00:18.843Z,9.36
2023-01-15T09:02:48.702Z,9.41
2023-01-15T09:05:17.864Z,9.46
2023-01-15T09:07:45.768Z,9.52
2023-01-15T09:10:13.605Z,9.55
2023-01-15T09:12:41.563Z,9.54
2023-01-15T09:15:10.038Z,9.56
2023-01-15T09:17:42.095Z,9.56
2023-01-15T09:20:11.140Z,9.55
2023-01-15T09:22:38.920Z,9.54
2023-01-15T09:25:07.268Z,9.53
2023-01-15T09:27:35.651Z,9.52
2023-01-15T09:30:03.504Z,9.52
2023-01-15T09:32:31.315Z,9.50
2023-01-15T09:34:59.132Z,9.46
2023-01-15T09:37:26.900Z,9.45
2023-01-15T09:39:55.026Z,9.40
2023-01-15T09:43:09.437Z,9.37
2023-01-15T09:46:10.172Z,9.32
2023-01-15T09:49:05.643Z,9.24
2023-01-15T09:51:59.985Z,9.21
2023-01-15T09:54:57.843Z,9.09
2023-01-15T09:57:29.030Z,9.04
2023-01-15T10:00:02.153Z,8.92
2023-01-15T10:02:41.367Z,8.86
2023-01-15T10:05:12.869Z,8.73
2023-01-15T10:08:09.408Z,8.68
2023-01-15T10:10:42.712Z,8.67
2023-01-15T10:13:36.085Z,9.12
2023-01-15T10:16:04.009Z,9.35
2023-01-15T10:18:31.846Z,9.48
2023-01-15T10:21:09.565Z,9.46
2023-01-15T10:24:06.998Z,9.34
2023-01-15T10:26:51.943Z,9.11
2023-01-15T10:29:52.167Z,8.99
2023-01-15T10:32:20.228Z,8.78
2023-01-15T10:35:21.804Z,8.56
2023-01-15T10:38:20.327Z,8.41
2023-01-15T10:40:51.007Z,8.32
2023-01-15T10:43:37.126Z,8.24
2023-01-15T10:46:11.625Z,8.11
2023-01-15T10:48:54.397Z,8.02
2023-01-15T10:51:24.843Z,7.82
2023-01-15T10:54:20.377Z,7.59
2023-01-15T10:57:17.939Z,7.49
2023-01-15T10:59:49.940Z,7.21
2023-01-15T11:02:30.695Z,7.01
2023-01-15T11:04:58.675Z,6.70
2023-01-15T11:08:06.523Z,6.60
2023-01-15T11:10:34.783Z,6.31
2023-01-15T11:13:28.486Z,6.12
2023-01-15T11:16:14.909Z,6.10
2023-01-15T11:19:02.545Z,6.01
2023-01-15T11:21:30.379Z,5.87
2023-01-15T11:23:58.832Z,5.72
2023-01-15T11:26:30.667Z,5.65
2023-01-15T11:28:59.475Z,5.57
2023-01-15T11:31:39.779Z,5.50
2023-01-15T11:34:16.069Z,5.41
2023-01-15T11:36:43.893Z,5.33
2023-01-15T11:39:25.715Z,5.31
2023-01-15T11:42:18.706Z,5.19
2023-01-15T11:45:15.310Z,5.25
2023-01-15T11:48:15.961Z,5.14
2023-01-15T11:50:57.128Z,5.10
2023-01-15T11:53:29.152Z,5.08
2023-01-15T11:56:07.655Z,4.97
2023-01-15T11:58:56.712Z,4.84
2023-01-15T12:01:36.784Z,4.92
2023-01-15T12:04:07.086Z,4.79
2023-01-15T12:06:38.372Z,4.72
2023-01-15T12:09:12.221Z,4.69
2023-01-15T12:11:56.423Z,4.69
2023-01-15T12:14:45.919Z,4.73
2023-01-15T12:17:19.710Z,4.63
2023-01-15T12:20:18.116Z,4.59
2023-01-15T12:22:54.979Z,4.57
2023-01-15T12:25:34.563Z,4.39
2023-01-15T12:28:19.703Z,4.46
2023-01-15T12:31:06.272Z,4.40
2023-01-15T12:33:54.378Z,4.41
2023-01-15T12:36:48.927Z,4.40
2023-01-15T12:39:31.326Z,4.32
2023-01-15T12:42:19.888Z,4.23
2023-01-15T12:45:09.010Z,4.30
2023-01-15T12:47:39.072Z,4.36
2023-01-15T12:50:33.984Z,4.37
2023-01-15T12:53:29.201Z,4.27
2023-01-15T12:56:03.170Z,4.26
2023-01-15T12:58:43.879Z,4.08
2023-01-15T13:01:39.316Z,4.04
2023-01-15T13:04:20.021Z,3.99
2023-01-15T13:06:50.088Z,3.92
2023-01-15T13:09:25.612Z,3.83
2023-01-15T13:11:53.658Z,3.84
2023-01-15T13:14:22.719Z,3.81
2023-01-15T13:17:15.202Z,3.78
2023-01-15T13:19:49.371Z,3.73
2023-01-15T13:22:19.997Z,3.75
2023-01-15T13:25:12.572Z,3.72
2023-01-15T13:27:49.302Z,3.71
2023-01-15T13:30:33.628Z,3.64
2023-01-15T13:33:13.517Z,3.59
2023-01-15T13:35:46.494Z,3.57
2023-01-15T13:38:22.111Z,3.56
2023-01-15T13:40:53.305Z,3.59
2023-01-15T13:43:42.209Z,3.55
2023-01-15T13:46:14.394Z,3.55
2023-01-15T13:48:48.003Z,3.55
2023-01-15T13:51:26.905Z,3.57
2023-01-15T13:53:54.675Z,3.59
2023-01-15T13:56:33.457Z,3.66
2023-01-15T13:59:03.957Z,3.75
2023-01-15T14:01:31.877Z,3.80
2023-01-15T14:04:14.256Z,3.87
2023-01-15T14:06:55.264Z,3.90
2023-01-15T14:09:26.431Z,3.97
2023-01-15T14:12:19.340Z,4.02
2023-01-15T14:15:29.341Z,4.04
2023-01-15T14:18:15.288Z,4.11
2023-01-15T14:21:04.283Z,4.12
2023-01-15T14:24:27.755Z,4.19
2023-01-15T14:27:09.280Z,4.26
2023-01-15T14:29:45.960Z,4.30
2023-01-15T14:32:33.890Z,4.33
2023-01-15T14:35:02.305Z,4.36
2023-01-15T14:37:35.833Z,4.39
2023-01-15T14:40:04.438Z,4.38
2023-01-15T14:42:58.528Z,4.40
2023-01-15T14:45:39.789Z,4.43
2023-01-15T14:48:26.729Z,4.45
2023-01-15T14:50:55.309Z,4.47
2023-01-15T14:53:32.004Z,4.51
2023-01-15T14:56:15.210Z,4.44
2023-01-15T14:59:03.356Z,4.48
2023-01-15T15:01:35.982Z,4.46
2023-01-15T15:04:12.702Z,4.49
2023-01-15T15:06:51.500Z,4.52
2023-01-15T15:09:32.893Z,4.51
2023-01-15T15:12:21.827Z,4.51
2023-01-15T15:15:12.300Z,4.49
2023-01-15T15:18:12.302Z,4.52
2023-01-15T15:21:00.210Z,4.57
2023-01-15T15:23:29.836Z,4.57
2023-01-15T15:26:02.873Z,4.60
2023-01-15T15:28:34.124Z,4.63
2023-01-15T15:31:02.706Z,4.60
2023-01-15T15:33:41.736Z,4.61
2023-01-15T15:36:10.154Z,4.61
2023-01-15T15:38:47.264Z,4.60
2023-01-15T15:41:19.716Z,4.59
2023-01-15T15:44:12.308Z,4.60
2023-01-15T15:46:58.703Z,4.60
2023-01-15T15:49:30.202Z,4.64
2023-01-15T15:51:59.099Z,4.57
2023-01-15T15:54:34.060Z,4.59
2023-01-15T15:57:15.910Z,4.52
2023-01-15T15:59:51.925Z,4.40
2023-01-15T16:02:19.700Z,4.42
2023-01-15T16:04:55.088Z,4.44
2023-01-15T16:07:36.028Z,4.38
2023-01-15T16:10:08.714Z,4.37
2023-01-15T16:12:37.997Z,4.37
2023-01-15T16:15:06.103Z,4.34
2023-01-15T16:17:33.952Z,4.30
2023-01-15T16:20:01.804Z,4.26
2023-01-15T16:22:29.637Z,4.19
2023-01-15T16:25:01.025Z,4.19
2023-01-15T16:27:33.086Z,4.13
2023-01-15T16:30:00.942Z,4.12
2023-01-15T16:32:30.166Z,4.11
2023-01-15T16:35:27.528Z,4.09
2023-01-15T16:37:56.773Z,4.12
2023-01-15T16:40:38.497Z,4.08
2023-01-15T16:43:09.040Z,4.07
2023-01-15T16:45:39.007Z,4.05
2023-01-15T16:48:09.888Z,4.08
2023-01-15T16:50:39.813Z,4.05
2023-01-15T16:53:08.422Z,4.05
2023-01-15T16:55:36.317Z,4.06
2023-01-15T16:58:13.550Z,4.03
2023-01-15T17:00:52.765Z,4.00
2023-01-15T17:03:22.657Z,3.97
2023-01-15T17:06:12.130Z,3.97
2023-01-15T17:08:40.342Z,3.89
2023-01-15T17:11:39.800Z,3.85
2023-01-15T17:14:27.288Z,3.84
2023-01-15T17:17:23.076Z,3.79
2023-01-15T17:19:51.758Z,3.76
2023-01-15T17:22:27.561Z,3.74
2023-01-15T17:24:57.049Z,3.72
2023-01-15T17:27:25.921Z,3.72
2023-01-15T17:29:54.116Z,3.75
2023-01-15T17:32:27.005Z,3.77
2023-01-15T17:34:54.810Z,3.76
2023-01-15T17:37:27.941Z,3.73
2023-01-15T17:39:55.860Z,3.71
2023-01-15T17:42:27.019Z,3.67
2023-01-15T17:44:56.606Z,3.68
2023-01-15T17:47:24.822Z,3.72
2023-01-15T17:49:52.986Z,3.73
2023-01-15T17:52:21.487Z,3.72
2023-01-15T17:55:07.739Z,3.73
2023-01-15T17:58:00.593Z,3.72
2023-01-15T18:00:48.580Z,3.72
2023-01-15T18:03:40.659Z,3.68
2023-01-15T18:06:10.745Z,3.66
2023-01-15T18:08:38.872Z,3.66
2023-01-15T18:11:06.935Z,3.67
2023-01-15T18:13:34.829Z,3.68
2023-01-15T18:16:05.874Z,3.68
2023-01-15T18:18:39.559Z,3.68
2023-01-15T18:21:08.921Z,3.67
2023-01-15T18:23:40.937Z,3.65
2023-01-15T18:26:09.580Z,3.66
2023-01-15T18:28:38.043Z,3.64
2023-01-15T18:31:06.717Z,3.62
2023-01-15T18:33:34.708Z,3.64
2023-01-15T18:36:12.850Z,3.64
2023-01-15T18:41:38.638Z,3.59
2023-01-15T18:44:28.364Z,3.57
2023-01-15T18:46:58.484Z,3.55
2023-01-15T18:49:27.369Z,3.56
2023-01-15T18:52:14.254Z,3.55
2023-01-15T18:54:42.038Z,3.57
2023-01-15T18:57:10.234Z,3.53
2023-01-15T18:59:38.718Z,3.54
2023-01-15T19:02:24.102Z,3.48
2023-01-15T19:05:13.749Z,3.50
2023-01-15T19:07:47.471Z,3.49
2023-01-15T19:10:17.189Z,3.48
2023-01-15T19:12:59.515Z,3.47
2023-01-15T19:15:52.758Z,3.46
2023-01-15T19:18:57.483Z,3.45
2023-01-15T19:21:26.549Z,3.42
2023-01-15T19:24:01.124Z,3.42
2023-01-15T19:26:29.462Z,3.39
2023-01-15T19:29:25.267Z,3.41
2023-01-15T19:31:54.368Z,3.41
2023-01-15T19:34:33.550Z,3.39
2023-01-15T19:37:02.588Z,3.37
2023-01-15T19:39:34.817Z,3.39
2023-01-15T19:42:24.762Z,3.41
2023-01-15T19:45:11.306Z,3.43
2023-01-15T19:47:59.301Z,3.44
2023-01-15T19:50:36.053Z,3.44
2023-01-15T19:53:04.502Z,3.45
2023-01-15T19:55:33.151Z,3.44
2023-01-15T19:58:08.227Z,3.43
2023-01-15T20:00:37.567Z,3.38
2023-01-15T20:03:05.995Z,3.39
2023-01-15T20:05:33.962Z,3.32
2023-01-15T20:08:02.627Z,3.33
2023-01-15T20:10:36.153Z,3.30
2023-01-15T20:13:26.146Z,3.29
2023-01-15T20:15:54.561Z,3.29
2023-01-15T20:18:24.410Z,3.29
2023-01-15T20:20:56.021Z,3.29
2023-01-15T20:23:23.860Z,3.30
2023-01-15T20:26:02.856Z,3.30
2023-01-15T20:28:31.107Z,3.31
2023-01-15T20:31:01.686Z,3.29
2023-01-15T20:33:30.482Z,3.30
2023-01-15T20:35:58.274Z,3.29
2023-01-15T20:38:29.422Z,3.33
2023-01-15T20:41:26.669Z,3.33
2023-01-15T20:44:13.672Z,3.34
2023-01-15T20:46:41.634Z,3.36
2023-01-15T20:49:26.732Z,3.36
2023-01-15T20:51:54.999Z,3.38
2023-01-15T20:54:23.466Z,3.40
2023-01-15T20:56:51.258Z,3.39
2023-01-15T20:59:19.044Z,3.38
2023-01-15T21:01:47.062Z,3.38
2023-01-15T21:04:15.099Z,3.37
2023-01-15T21:06:43.150Z,3.39
2023-01-15T21:09:11.118Z,3.35
2023-01-15T21:11:39.074Z,3.33
2023-01-15T21:14:06.927Z,3.34
2023-01-15T21:16:34.795Z,3.36
2023-01-15T21:19:05.510Z,3.32
2023-01-15T21:21:33.386Z,3.34
2023-01-15T21:24:02.098Z,3.36
2023-01-15T21:26:30.133Z,3.38
2023-01-15T21:28:57.931Z,3.36
2023-01-15T21:31:25.783Z,3.37
2023-01-15T21:33:55.340Z,3.36
2023-01-15T21:36:23.184Z,3.36
2023-01-15T21:38:52.331Z,3.35
2023-01-15T21:41:20.158Z,3.34
2023-01-15T21:44:06.718Z,3.28
2023-01-15T21:46:34.606Z,3.29
2023-01-15T21:49:02.421Z,3.27
2023-01-15T21:51:31.692Z,3.29
2023-01-15T21:54:00.395Z,3.27
2023-01-15T21:56:28.519Z,3.20
2023-01-15T21:58:56.476Z,3.12
2023-01-15T22:01:24.474Z,3.11
2023-01-15T22:03:52.355Z,3.07
2023-01-15T22:06:20.139Z,3.06
2023-01-15T22:08:47.958Z,3.06
2023-01-15T22:11:15.793Z,3.09
2023-01-15T22:13:43.892Z,3.08
2023-01-15T22:16:11.725Z,3.10
2023-01-15T22:18:39.522Z,3.15
2023-01-15T22:21:08.361Z,3.20
2023-01-15T22:23:36.250Z,3.25
2023-01-15T22:26:04.200Z,3.30
2023-01-15T22:28:32.003Z,3.31
2023-01-15T22:30:59.913Z,3.34
2023-01-15T22:33:28.105Z,3.35
2023-01-15T22:36:00.112Z,3.34
2023-01-15T22:38:28.429Z,3.34
2023-01-15T22:40:59.637Z,3.35
2023-01-15T22:43:27.401Z,3.39
2023-01-15T22:45:55.188Z,3.37
2023-01-15T22:48:22.951Z,3.36
2023-01-15T22:50:50.933Z,3.35
2023-01-15T22:53:18.681Z,3.37
2023-01-15T22:55:46.575Z,3.32
2023-01-15T22:58:14.369Z,3.38
2023-01-15T23:00:42.183Z,3.38
2023-01-15T23:03:09.972Z,3.36
2023-01-15T23:05:40.718Z,3.33
2023-01-15T23:08:08.674Z,3.37
2023-01-15T23:10:36.818Z,3.35
2023-01-15T23:13:04.749Z,3.34
2023-01-15T23:15:32.577Z,3.34
2023-01-15T23:18:00.842Z,3.34
2023-01-15T23:20:28.768Z,3.35
2023-01-15T23:22:56.855Z,3.34
2023-01-15T23:25:24.670Z,3.35
2023-01-15T23:27:52.423Z,3.34
2023-01-15T23:30:20.225Z,3.35
2023-01-15T23:32:48.080Z,3.39
2023-01-15T23:35:16.062Z,3.43
2023-01-15T23:37:43.812Z,3.44
2023-01-15T23:40:12.340Z,3.43
2023-01-15T23:42:58.912Z,3.45
2023-01-15T23:45:45.499Z,3.47
2023-01-15T23:48:13.412Z,3.48
2023-01-15T23:50:41.290Z,3.50
2023-01-15T23:53:09.095Z,3.55
2023-01-15T23:55:37.721Z,3.53
2023-01-15T23:58:05.587Z,3.60
